sensor_id;sensor_type;location;lat;lon;timestamp;P1;durP1;ratioP1;P2;durP2;ratioP2
14698;SDS011;7439;50.804;4.602;2022-10-03T00:02:30;56.73;;;52.50;;
14698;SDS011;7439;50.804;4.602;2022-10-03T00:05:15;53.97;;;50.03;;
14698;SDS011;7439;50.804;4.602;2022-10-03T00:08:02;56.87;;;53.00;;
14698;SDS011;7439;50.804;4.602;2022-10-03T00:10:44;57.13;;;53.00;;
14698;SDS011;7439;50.804;4.602;2022-10-03T00:13:19;55.17;;;51.57;;
14698;SDS011;7439;50.804;4.602;2022-10-03T00:15:59;55.53;;;51.50;;
14698;SDS011;7439;50.804;4.602;2022-10-03T00:18:35;54.60;;;50.77;;
14698;SDS011;7439;50.804;4.602;2022-10-03T00:21:15;56.70;;;52.10;;
14698;SDS011;7439;50.804;4.602;2022-10-03T00:23:53;57.53;;;53.43;;
14698;SDS011;7439;50.804;4.602;2022-10-03T00:26:29;58.07;;;54.20;;
14698;SDS011;7439;50.804;4.602;2022-10-03T00:32:10;58.73;;;55.13;;
14698;SDS011;7439;50.804;4.602;2022-10-03T00:34:57;59.30;;;55.37;;
14698;SDS011;7439;50.804;4.602;2022-10-03T00:37:32;64.03;;;59.20;;
14698;SDS011;7439;50.804;4.602;2022-10-03T00:46:21;63.27;;;59.00;;
14698;SDS011;7439;50.804;4.602;2022-10-03T00:49:12;58.43;;;54.57;;
14698;SDS011;7439;50.804;4.602;2022-10-03T00:52:02;62.00;;;58.27;;
14698;SDS011;7439;50.804;4.602;2022-10-03T00:54:43;59.33;;;55.23;;
14698;SDS011;7439;50.804;4.602;2022-10-03T00:57:36;60.93;;;57.10;;
14698;SDS011;7439;50.804;4.602;2022-10-03T01:00:15;65.57;;;60.53;;
14698;SDS011;7439;50.804;4.602;2022-10-03T01:02:46;62.03;;;57.90;;
14698;SDS011;7439;50.804;4.602;2022-10-03T01:05:27;64.83;;;60.73;;
14698;SDS011;7439;50.804;4.602;2022-10-03T01:08:14;68.50;;;63.07;;
14698;SDS011;7439;50.804;4.602;2022-10-03T01:10:55;65.87;;;60.27;;
14698;SDS011;7439;50.804;4.602;2022-10-03T01:13:35;66.47;;;62.07;;
14698;SDS011;7439;50.804;4.602;2022-10-03T01:16:14;65.67;;;61.13;;
14698;SDS011;7439;50.804;4.602;2022-10-03T01:18:51;64.37;;;59.93;;
14698;SDS011;7439;50.804;4.602;2022-10-03T01:21:29;68.07;;;64.13;;
14698;SDS011;7439;50.804;4.602;2022-10-03T01:27:04;63.90;;;60.17;;
14698;SDS011;7439;50.804;4.602;2022-10-03T01:29:40;67.03;;;62.47;;
14698;SDS011;7439;50.804;4.602;2022-10-03T01:32:32;67.70;;;63.63;;
14698;SDS011;7439;50.804;4.602;2022-10-03T01:35:10;69.77;;;65.37;;
14698;SDS011;7439;50.804;4.602;2022-10-03T01:37:47;68.97;;;64.90;;
14698;SDS011;7439;50.804;4.602;2022-10-03T01:40:24;70.10;;;65.60;;
14698;SDS011;7439;50.804;4.602;2022-10-03T01:42:57;68.83;;;65.03;;
14698;SDS011;7439;50.804;4.602;2022-10-03T01:45:35;74.10;;;69.63;;
14698;SDS011;7439;50.804;4.602;2022-10-03T01:48:13;75.60;;;71.07;;
14698;SDS011;7439;50.804;4.602;2022-10-03T01:50:49;71.97;;;67.30;;
14698;SDS011;7439;50.804;4.602;2022-10-03T01:53:22;78.50;;;73.77;;
14698;SDS011;7439;50.804;4.602;2022-10-03T01:55:58;72.63;;;68.53;;
14698;SDS011;7439;50.804;4.602;2022-10-03T01:58:34;69.07;;;65.27;;
14698;SDS011;7439;50.804;4.602;2022-10-03T02:01:14;71.83;;;67.37;;
14698;SDS011;7439;50.804;4.602;2022-10-03T02:03:48;76.27;;;71.70;;
14698;SDS011;7439;50.804;4.602;2022-10-03T02:06:23;66.63;;;62.37;;
14698;SDS011;7439;50.804;4.602;2022-10-03T02:09:00;69.13;;;64.40;;
14698;SDS011;7439;50.804;4.602;2022-10-03T02:11:34;70.27;;;66.17;;
14698;SDS011;7439;50.804;4.602;2022-10-03T02:14:06;72.93;;;67.90;;
14698;SDS011;7439;50.804;4.602;2022-10-03T02:16:52;74.40;;;70.23;;
14698;SDS011;7439;50.804;4.602;2022-10-03T02:19:24;72.57;;;68.00;;
14698;SDS011;7439;50.804;4.602;2022-10-03T02:21:55;72.07;;;67.57;;
14698;SDS011;7439;50.804;4.602;2022-10-03T02:24:30;73.27;;;69.37;;
14698;SDS011;7439;50.804;4.602;2022-10-03T02:27:19;70.07;;;66.13;;
14698;SDS011;7439;50.804;4.602;2022-10-03T02:30:16;75.90;;;71.57;;
14698;SDS011;7439;50.804;4.602;2022-10-03T02:39:07;63.73;;;60.13;;
14698;SDS011;7439;50.804;4.602;2022-10-03T02:44:57;67.23;;;62.57;;
14698;SDS011;7439;50.804;4.602;2022-10-03T02:47:49;73.23;;;69.13;;
14698;SDS011;7439;50.804;4.602;2022-10-03T02:50:59;71.97;;;67.73;;
14698;SDS011;7439;50.804;4.602;2022-10-03T02:54:07;79.40;;;74.97;;
14698;SDS011;7439;50.804;4.602;2022-10-03T03:12:01;87.03;;;82.03;;
14698;SDS011;7439;50.804;4.602;2022-10-03T03:15:19;89.43;;;84.63;;
14698;SDS011;7439;50.804;4.602;2022-10-03T03:18:18;82.13;;;77.63;;
14698;SDS011;7439;50.804;4.602;2022-10-03T03:20:58;79.37;;;74.90;;
14698;SDS011;7439;50.804;4.602;2022-10-03T03:26:48;85.53;;;80.57;;
14698;SDS011;7439;50.804;4.602;2022-10-03T03:29:26;90.13;;;85.37;;
14698;SDS011;7439;50.804;4.602;2022-10-03T03:32:06;92.97;;;88.13;;
14698;SDS011;7439;50.804;4.602;2022-10-03T03:34:48;92.93;;;88.17;;
14698;SDS011;7439;50.804;4.602;2022-10-03T03:37:23;91.70;;;86.80;;
14698;SDS011;7439;50.804;4.602;2022-10-03T03:40:11;97.33;;;91.97;;
14698;SDS011;7439;50.804;4.602;2022-10-03T03:43:04;94.57;;;89.93;;
14698;SDS011;7439;50.804;4.602;2022-10-03T03:45:54;93.20;;;88.50;;
14698;SDS011;7439;50.804;4.602;2022-10-03T03:51:28;90.73;;;86.07;;
14698;SDS011;7439;50.804;4.602;2022-10-03T03:54:13;100.40;;;95.00;;
14698;SDS011;7439;50.804;4.602;2022-10-03T03:56:57;98.30;;;93.47;;
14698;SDS011;7439;50.804;4.602;2022-10-03T03:59:42;102.33;;;97.23;;
14698;SDS011;7439;50.804;4.602;2022-10-03T04:02:31;105.70;;;99.87;;
14698;SDS011;7439;50.804;4.602;2022-10-03T04:05:13;101.67;;;96.57;;
14698;SDS011;7439;50.804;4.602;2022-10-03T04:07:52;95.23;;;90.47;;
14698;SDS011;7439;50.804;4.602;2022-10-03T04:10:36;95.53;;;90.63;;
14698;SDS011;7439;50.804;4.602;2022-10-03T04:13:19;99.07;;;93.60;;
14698;SDS011;7439;50.804;4.602;2022-10-03T04:16:01;102.10;;;96.83;;
14698;SDS011;7439;50.804;4.602;2022-10-03T04:18:43;105.50;;;100.20;;
14698;SDS011;7439;50.804;4.602;2022-10-03T04:21:30;105.80;;;100.37;;
14698;SDS011;7439;50.804;4.602;2022-10-03T04:24:11;107.57;;;102.07;;
14698;SDS011;7439;50.804;4.602;2022-10-03T04:27:08;103.70;;;97.83;;
14698;SDS011;7439;50.804;4.602;2022-10-03T04:29:47;106.57;;;101.13;;
14698;SDS011;7439;50.804;4.602;2022-10-03T04:32:31;107.97;;;101.87;;
14698;SDS011;7439;50.804;4.602;2022-10-03T04:35:10;106.70;;;101.00;;
14698;SDS011;7439;50.804;4.602;2022-10-03T04:37:57;112.07;;;106.13;;
14698;SDS011;7439;50.804;4.602;2022-10-03T04:40:39;109.87;;;104.47;;
14698;SDS011;7439;50.804;4.602;2022-10-03T04:43:14;111.07;;;105.27;;
14698;SDS011;7439;50.804;4.602;2022-10-03T04:45:53;106.87;;;101.57;;
14698;SDS011;7439;50.804;4.602;2022-10-03T04:48:34;104.97;;;99.93;;
14698;SDS011;7439;50.804;4.602;2022-10-03T04:51:07;109.37;;;104.10;;
14698;SDS011;7439;50.804;4.602;2022-10-03T04:53:48;106.87;;;101.70;;
14698;SDS011;7439;50.804;4.602;2022-10-03T04:56:21;108.33;;;103.13;;
14698;SDS011;7439;50.804;4.602;2022-10-03T04:59:00;108.27;;;103.07;;
14698;SDS011;7439;50.804;4.602;2022-10-03T05:01:38;108.53;;;103.50;;
14698;SDS011;7439;50.804;4.602;2022-10-03T05:04:18;103.97;;;98.87;;
14698;SDS011;7439;50.804;4.602;2022-10-03T05:06:57;111.23;;;105.83;;
14698;SDS011;7439;50.804;4.602;2022-10-03T05:09:35;112.70;;;107.30;;
14698;SDS011;7439;50.804;4.602;2022-10-03T05:12:10;119.20;;;112.83;;
14698;SDS011;7439;50.804;4.602;2022-10-03T05:14:48;111.53;;;106.33;;
14698;SDS011;7439;50.804;4.602;2022-10-03T05:17:29;116.40;;;110.73;;
14698;SDS011;7439;50.804;4.602;2022-10-03T05:20:20;112.00;;;105.60;;
14698;SDS011;7439;50.804;4.602;2022-10-03T05:23:06;103.33;;;98.03;;
14698;SDS011;7439;50.804;4.602;2022-10-03T05:25:45;97.87;;;93.00;;
14698;SDS011;7439;50.804;4.602;2022-10-03T05:28:21;101.00;;;95.93;;
14698;SDS011;7439;50.804;4.602;2022-10-03T05:30:56;108.10;;;103.03;;
14698;SDS011;7439;50.804;4.602;2022-10-03T05:33:32;106.87;;;101.83;;
14698;SDS011;7439;50.804;4.602;2022-10-03T05:36:10;104.03;;;99.10;;
14698;SDS011;7439;50.804;4.602;2022-10-03T05:41:53;111.10;;;106.10;;
14698;SDS011;7439;50.804;4.602;2022-10-03T05:44:27;115.63;;;110.37;;
14698;SDS011;7439;50.804;4.602;2022-10-03T05:47:06;119.20;;;113.80;;
14698;SDS011;7439;50.804;4.602;2022-10-03T05:50:07;120.97;;;115.47;;
14698;SDS011;7439;50.804;4.602;2022-10-03T05:52:59;120.23;;;113.67;;
14698;SDS011;7439;50.804;4.602;2022-10-03T05:55:42;121.50;;;114.90;;
14698;SDS011;7439;50.804;4.602;2022-10-03T06:01:33;126.63;;;119.10;;
14698;SDS011;7439;50.804;4.602;2022-10-03T06:04:38;117.70;;;111.70;;
14698;SDS011;7439;50.804;4.602;2022-10-03T06:07:46;114.40;;;108.50;;
14698;SDS011;7439;50.804;4.602;2022-10-03T06:13:22;116.53;;;110.33;;
14698;SDS011;7439;50.804;4.602;2022-10-03T06:16:05;116.00;;;110.47;;
14698;SDS011;7439;50.804;4.602;2022-10-03T06:18:56;111.67;;;105.97;;
14698;SDS011;7439;50.804;4.602;2022-10-03T06:21:44;112.97;;;107.07;;
14698;SDS011;7439;50.804;4.602;2022-10-03T06:24:49;115.17;;;109.20;;
14698;SDS011;7439;50.804;4.602;2022-10-03T06:30:51;107.87;;;102.67;;
14698;SDS011;7439;50.804;4.602;2022-10-03T06:33:57;107.53;;;102.33;;
14698;SDS011;7439;50.804;4.602;2022-10-03T06:36:47;107.37;;;102.37;;
14698;SDS011;7439;50.804;4.602;2022-10-03T06:39:42;104.27;;;99.00;;
14698;SDS011;7439;50.804;4.602;2022-10-03T06:45:53;101.80;;;96.77;;
14698;SDS011;7439;50.804;4.602;2022-10-03T06:54:51;97.13;;;91.93;;
14698;SDS011;7439;50.804;4.602;2022-10-03T07:00:57;94.27;;;89.77;;
14698;SDS011;7439;50.804;4.602;2022-10-03T07:03:54;93.70;;;88.53;;
14698;SDS011;7439;50.804;4.602;2022-10-03T07:06:37;95.07;;;89.30;;
14698;SDS011;7439;50.804;4.602;2022-10-03T07:18:54;71.37;;;67.23;;
14698;SDS011;7439;50.804;4.602;2022-10-03T07:24:54;83.50;;;79.30;;
14698;SDS011;7439;50.804;4.602;2022-10-03T07:27:50;109.53;;;104.17;;
14698;SDS011;7439;50.804;4.602;2022-10-03T07:30:50;120.40;;;114.63;;
14698;SDS011;7439;50.804;4.602;2022-10-03T07:33:26;129.67;;;119.73;;
14698;SDS011;7439;50.804;4.602;2022-10-03T07:36:42;125.57;;;118.63;;
14698;SDS011;7439;50.804;4.602;2022-10-03T07:39:54;127.10;;;118.03;;
14698;SDS011;7439;50.804;4.602;2022-10-03T07:42:45;125.23;;;118.83;;
14698;SDS011;7439;50.804;4.602;2022-10-03T07:45:39;129.87;;;123.20;;
14698;SDS011;7439;50.804;4.602;2022-10-03T07:51:13;117.87;;;111.13;;
14698;SDS011;7439;50.804;4.602;2022-10-03T07:53:55;121.00;;;114.90;;
14698;SDS011;7439;50.804;4.602;2022-10-03T07:56:57;128.63;;;122.53;;
14698;SDS011;7439;50.804;4.602;2022-10-03T07:59:40;147.37;;;140.27;;
14698;SDS011;7439;50.804;4.602;2022-10-03T08:02:34;167.77;;;159.27;;
14698;SDS011;7439;50.804;4.602;2022-10-03T08:05:21;190.87;;;181.83;;
14698;SDS011;7439;50.804;4.602;2022-10-03T08:08:04;215.23;;;205.83;;
14698;SDS011;7439;50.804;4.602;2022-10-03T08:13:58;212.20;;;203.33;;
14698;SDS011;7439;50.804;4.602;2022-10-03T08:19:26;220.10;;;211.50;;
14698;SDS011;7439;50.804;4.602;2022-10-03T08:22:09;201.30;;;193.30;;
14698;SDS011;7439;50.804;4.602;2022-10-03T08:30:54;169.07;;;162.17;;
14698;SDS011;7439;50.804;4.602;2022-10-03T08:34:03;150.83;;;144.73;;
14698;SDS011;7439;50.804;4.602;2022-10-03T08:37:00;129.80;;;123.57;;
14698;SDS011;7439;50.804;4.602;2022-10-03T08:39:56;115.63;;;110.83;;
14698;SDS011;7439;50.804;4.602;2022-10-03T08:43:03;104.83;;;100.13;;
14698;SDS011;7439;50.804;4.602;2022-10-03T08:46:08;101.97;;;97.37;;
14698;SDS011;7439;50.804;4.602;2022-10-03T08:48:59;96.57;;;92.23;;
14698;SDS011;7439;50.804;4.602;2022-10-03T09:01:19;86.80;;;82.93;;
14698;SDS011;7439;50.804;4.602;2022-10-03T09:04:01;85.33;;;81.63;;
14698;SDS011;7439;50.804;4.602;2022-10-03T09:07:10;86.60;;;82.60;;
14698;SDS011;7439;50.804;4.602;2022-10-03T09:13:10;97.57;;;93.27;;
14698;SDS011;7439;50.804;4.602;2022-10-03T09:19:09;81.83;;;78.03;;
14698;SDS011;7439;50.804;4.602;2022-10-03T09:21:53;62.47;;;59.20;;
14698;SDS011;7439;50.804;4.602;2022-10-03T09:24:49;64.77;;;61.40;;
14698;SDS011;7439;50.804;4.602;2022-10-03T09:30:51;45.70;;;43.20;;
14698;SDS011;7439;50.804;4.602;2022-10-03T09:36:44;45.30;;;42.90;;
14698;SDS011;7439;50.804;4.602;2022-10-03T09:40:01;39.00;;;36.83;;
14698;SDS011;7439;50.804;4.602;2022-10-03T09:43:12;26.23;;;24.10;;
14698;SDS011;7439;50.804;4.602;2022-10-03T09:49:13;20.73;;;18.37;;
14698;SDS011;7439;50.804;4.602;2022-10-03T09:52:07;21.70;;;20.20;;
14698;SDS011;7439;50.804;4.602;2022-10-03T09:55:01;18.70;;;17.10;;
14698;SDS011;7439;50.804;4.602;2022-10-03T10:00:52;8.80;;;6.70;;
14698;SDS011;7439;50.804;4.602;2022-10-03T10:15:56;10.30;;;3.80;;
14698;SDS011;7439;50.804;4.602;2022-10-03T10:21:50;6.60;;;3.23;;
14698;SDS011;7439;50.804;4.602;2022-10-03T10:37:34;7.27;;;2.93;;
14698;SDS011;7439;50.804;4.602;2022-10-03T10:42:59;6.43;;;2.67;;
14698;SDS011;7439;50.804;4.602;2022-10-03T11:37:12;4.90;;;2.20;;
14698;SDS011;7439;50.804;4.602;2022-10-03T11:39:55;4.60;;;2.13;;
14698;SDS011;7439;50.804;4.602;2022-10-03T11:42:37;6.63;;;2.40;;
14698;SDS011;7439;50.804;4.602;2022-10-03T11:45:17;6.33;;;2.70;;
14698;SDS011;7439;50.804;4.602;2022-10-03T11:47:52;7.47;;;2.63;;
14698;SDS011;7439;50.804;4.602;2022-10-03T11:50:32;5.93;;;2.30;;
14698;SDS011;7439;50.804;4.602;2022-10-03T11:59:11;4.53;;;2.00;;
14698;SDS011;7439;50.804;4.602;2022-10-03T12:04:55;7.60;;;2.40;;
14698;SDS011;7439;50.804;4.602;2022-10-03T12:07:36;7.00;;;2.30;;
14698;SDS011;7439;50.804;4.602;2022-10-03T12:10:34;7.40;;;2.90;;
14698;SDS011;7439;50.804;4.602;2022-10-03T12:13:11;8.80;;;2.40;;
14698;SDS011;7439;50.804;4.602;2022-10-03T12:15:41;8.03;;;2.73;;
14698;SDS011;7439;50.804;4.602;2022-10-03T12:18:13;5.73;;;2.27;;
14698;SDS011;7439;50.804;4.602;2022-10-03T12:23:41;4.93;;;2.27;;
14698;SDS011;7439;50.804;4.602;2022-10-03T12:26:22;5.57;;;2.03;;
14698;SDS011;7439;50.804;4.602;2022-10-03T12:29:06;8.47;;;2.57;;
14698;SDS011;7439;50.804;4.602;2022-10-03T12:31:38;6.60;;;2.10;;
14698;SDS011;7439;50.804;4.602;2022-10-03T12:34:22;3.47;;;1.93;;
14698;SDS011;7439;50.804;4.602;2022-10-03T12:37:08;5.77;;;2.37;;
14698;SDS011;7439;50.804;4.602;2022-10-03T12:39:46;4.87;;;2.70;;
14698;SDS011;7439;50.804;4.602;2022-10-03T12:42:25;6.90;;;2.50;;
14698;SDS011;7439;50.804;4.602;2022-10-03T12:44:57;8.90;;;2.40;;
14698;SDS011;7439;50.804;4.602;2022-10-03T12:47:29;4.43;;;2.33;;
14698;SDS011;7439;50.804;4.602;2022-10-03T12:50:13;4.53;;;2.37;;
14698;SDS011;7439;50.804;4.602;2022-10-03T12:52:55;6.00;;;2.27;;
14698;SDS011;7439;50.804;4.602;2022-10-03T12:55:40;9.17;;;2.97;;
14698;SDS011;7439;50.804;4.602;2022-10-03T12:58:17;7.43;;;2.60;;
14698;SDS011;7439;50.804;4.602;2022-10-03T13:00:56;4.00;;;2.00;;
14698;SDS011;7439;50.804;4.602;2022-10-03T13:03:35;3.87;;;2.20;;
14698;SDS011;7439;50.804;4.602;2022-10-03T13:06:19;7.77;;;2.67;;
14698;SDS011;7439;50.804;4.602;2022-10-03T13:09:04;6.20;;;2.20;;
14698;SDS011;7439;50.804;4.602;2022-10-03T13:11:47;7.40;;;2.83;;
14698;SDS011;7439;50.804;4.602;2022-10-03T13:14:29;3.93;;;1.87;;
14698;SDS011;7439;50.804;4.602;2022-10-03T13:17:09;6.43;;;2.23;;
14698;SDS011;7439;50.804;4.602;2022-10-03T13:19:49;5.43;;;2.50;;
14698;SDS011;7439;50.804;4.602;2022-10-03T13:22:27;6.27;;;2.97;;
14698;SDS011;7439;50.804;4.602;2022-10-03T13:25:02;5.50;;;2.50;;
14698;SDS011;7439;50.804;4.602;2022-10-03T13:27:36;6.90;;;3.30;;
14698;SDS011;7439;50.804;4.602;2022-10-03T13:30:15;6.70;;;3.67;;
14698;SDS011;7439;50.804;4.602;2022-10-03T13:32:48;8.30;;;3.50;;
14698;SDS011;7439;50.804;4.602;2022-10-03T13:35:20;8.87;;;4.23;;
14698;SDS011;7439;50.804;4.602;2022-10-03T13:38:12;8.43;;;4.30;;
14698;SDS011;7439;50.804;4.602;2022-10-03T13:40:59;6.43;;;4.13;;
14698;SDS011;7439;50.804;4.602;2022-10-03T13:43:36;5.47;;;4.33;;
14698;SDS011;7439;50.804;4.602;2022-10-03T13:46:10;8.60;;;4.03;;
14698;SDS011;7439;50.804;4.602;2022-10-03T13:48:40;8.73;;;4.30;;
14698;SDS011;7439;50.804;4.602;2022-10-03T13:51:18;7.13;;;4.60;;
14698;SDS011;7439;50.804;4.602;2022-10-03T13:53:56;8.23;;;4.50;;
14698;SDS011;7439;50.804;4.602;2022-10-03T13:56:33;7.37;;;4.87;;
14698;SDS011;7439;50.804;4.602;2022-10-03T13:59:10;11.87;;;4.70;;
14698;SDS011;7439;50.804;4.602;2022-10-03T14:01:59;10.47;;;4.53;;
14698;SDS011;7439;50.804;4.602;2022-10-03T14:04:50;11.17;;;5.17;;
14698;SDS011;7439;50.804;4.602;2022-10-03T14:07:28;9.97;;;4.73;;
14698;SDS011;7439;50.804;4.602;2022-10-03T14:10:06;9.20;;;4.77;;
14698;SDS011;7439;50.804;4.602;2022-10-03T14:12:45;11.20;;;4.83;;
14698;SDS011;7439;50.804;4.602;2022-10-03T14:15:23;11.80;;;5.00;;
14698;SDS011;7439;50.804;4.602;2022-10-03T14:17:59;9.07;;;4.77;;
14698;SDS011;7439;50.804;4.602;2022-10-03T14:20:40;11.33;;;6.80;;
14698;SDS011;7439;50.804;4.602;2022-10-03T14:23:51;9.70;;;4.70;;
14698;SDS011;7439;50.804;4.602;2022-10-03T14:26:27;7.10;;;4.93;;
14698;SDS011;7439;50.804;4.602;2022-10-03T14:28:58;6.93;;;4.50;;
14698;SDS011;7439;50.804;4.602;2022-10-03T14:31:31;7.53;;;4.50;;
14698;SDS011;7439;50.804;4.602;2022-10-03T14:34:05;11.47;;;5.03;;
14698;SDS011;7439;50.804;4.602;2022-10-03T14:36:42;8.10;;;4.30;;
14698;SDS011;7439;50.804;4.602;2022-10-03T14:42:10;9.33;;;3.93;;
14698;SDS011;7439;50.804;4.602;2022-10-03T14:44:54;9.37;;;4.00;;
14698;SDS011;7439;50.804;4.602;2022-10-03T14:47:24;6.10;;;4.40;;
14698;SDS011;7439;50.804;4.602;2022-10-03T14:49:59;6.87;;;4.00;;
14698;SDS011;7439;50.804;4.602;2022-10-03T14:52:28;5.83;;;3.50;;
14698;SDS011;7439;50.804;4.602;2022-10-03T14:55:02;7.53;;;3.60;;
14698;SDS011;7439;50.804;4.602;2022-10-03T14:57:39;6.50;;;4.33;;
14698;SDS011;7439;50.804;4.602;2022-10-03T15:00:21;12.10;;;5.17;;
14698;SDS011;7439;50.804;4.602;2022-10-03T15:02:52;7.70;;;4.63;;
14698;SDS011;7439;50.804;4.602;2022-10-03T15:05:21;8.73;;;4.40;;
14698;SDS011;7439;50.804;4.602;2022-10-03T15:07:59;9.37;;;4.00;;
14698;SDS011;7439;50.804;4.602;2022-10-03T15:10:28;8.97;;;4.03;;
14698;SDS011;7439;50.804;4.602;2022-10-03T15:12:57;8.13;;;3.90;;
14698;SDS011;7439;50.804;4.602;2022-10-03T15:15:31;7.43;;;3.87;;
14698;SDS011;7439;50.804;4.602;2022-10-03T15:18:01;7.60;;;3.73;;
14698;SDS011;7439;50.804;4.602;2022-10-03T15:20:33;6.73;;;3.53;;
14698;SDS011;7439;50.804;4.602;2022-10-03T15:23:03;5.93;;;3.53;;
14698;SDS011;7439;50.804;4.602;2022-10-03T15:25:32;8.23;;;3.87;;
14698;SDS011;7439;50.804;4.602;2022-10-03T15:28:03;6.37;;;3.43;;
14698;SDS011;7439;50.804;4.602;2022-10-03T15:30:33;10.07;;;3.67;;
14698;SDS011;7439;50.804;4.602;2022-10-03T15:33:03;7.90;;;3.83;;
14698;SDS011;7439;50.804;4.602;2022-10-03T15:35:37;10.07;;;4.07;;
14698;SDS011;7439;50.804;4.602;2022-10-03T15:38:08;6.37;;;4.00;;
14698;SDS011;7439;50.804;4.602;2022-10-03T15:40:40;7.10;;;3.87;;
14698;SDS011;7439;50.804;4.602;2022-10-03T15:43:20;8.27;;;3.90;;
14698;SDS011;7439;50.804;4.602;2022-10-03T15:45:54;6.60;;;3.67;;
14698;SDS011;7439;50.804;4.602;2022-10-03T15:48:22;9.13;;;3.90;;
14698;SDS011;7439;50.804;4.602;2022-10-03T15:50:53;4.70;;;4.03;;
14698;SDS011;7439;50.804;4.602;2022-10-03T15:53:23;6.80;;;4.27;;
14698;SDS011;7439;50.804;4.602;2022-10-03T15:55:53;7.23;;;4.50;;
14698;SDS011;7439;50.804;4.602;2022-10-03T15:58:25;8.07;;;4.40;;
14698;SDS011;7439;50.804;4.602;2022-10-03T16:00:59;4.97;;;3.70;;
14698;SDS011;7439;50.804;4.602;2022-10-03T16:03:32;5.77;;;4.43;;
14698;SDS011;7439;50.804;4.602;2022-10-03T16:06:07;9.53;;;4.43;;
14698;SDS011;7439;50.804;4.602;2022-10-03T16:08:40;6.00;;;4.27;;
14698;SDS011;7439;50.804;4.602;2022-10-03T16:11:18;7.33;;;4.67;;
14698;SDS011;7439;50.804;4.602;2022-10-03T16:13:49;7.13;;;5.27;;
14698;SDS011;7439;50.804;4.602;2022-10-03T16:16:26;4.77;;;3.73;;
14698;SDS011;7439;50.804;4.602;2022-10-03T16:22:03;5.97;;;3.43;;
14698;SDS011;7439;50.804;4.602;2022-10-03T16:24:44;8.50;;;4.33;;
14698;SDS011;7439;50.804;4.602;2022-10-03T16:27:15;6.27;;;3.60;;
14698;SDS011;7439;50.804;4.602;2022-10-03T16:29:51;7.63;;;4.30;;
14698;SDS011;7439;50.804;4.602;2022-10-03T16:32:23;4.90;;;3.93;;
14698;SDS011;7439;50.804;4.602;2022-10-03T16:34:53;6.73;;;4.97;;
14698;SDS011;7439;50.804;4.602;2022-10-03T16:37:29;13.67;;;4.73;;
14698;SDS011;7439;50.804;4.602;2022-10-03T16:39:58;10.40;;;4.70;;
14698;SDS011;7439;50.804;4.602;2022-10-03T16:42:28;11.67;;;3.97;;
14698;SDS011;7439;50.804;4.602;2022-10-03T16:45:05;10.03;;;4.50;;
14698;SDS011;7439;50.804;4.602;2022-10-03T16:47:47;6.17;;;3.80;;
14698;SDS011;7439;50.804;4.602;2022-10-03T16:50:36;8.97;;;4.13;;
14698;SDS011;7439;50.804;4.602;2022-10-03T16:53:09;6.33;;;3.53;;
14698;SDS011;7439;50.804;4.602;2022-10-03T16:55:39;10.20;;;4.17;;
14698;SDS011;7439;50.804;4.602;2022-10-03T16:58:14;5.57;;;3.60;;
14698;SDS011;7439;50.804;4.602;2022-10-03T17:00:50;7.37;;;3.67;;
14698;SDS011;7439;50.804;4.602;2022-10-03T17:03:22;9.83;;;4.40;;
14698;SDS011;7439;50.804;4.602;2022-10-03T17:05:52;6.10;;;4.40;;
14698;SDS011;7439;50.804;4.602;2022-10-03T17:08:25;7.83;;;4.37;;
14698;SDS011;7439;50.804;4.602;2022-10-03T17:11:03;6.67;;;4.27;;
14698;SDS011;7439;50.804;4.602;2022-10-03T17:13:37;7.47;;;3.97;;
14698;SDS011;7439;50.804;4.602;2022-10-03T17:16:10;7.10;;;5.20;;
14698;SDS011;7439;50.804;4.602;2022-10-03T17:18:42;5.87;;;4.93;;
14698;SDS011;7439;50.804;4.602;2022-10-03T17:21:16;11.13;;;4.43;;
14698;SDS011;7439;50.804;4.602;2022-10-03T17:23:51;10.80;;;4.80;;
14698;SDS011;7439;50.804;4.602;2022-10-03T17:26:26;9.23;;;5.07;;
14698;SDS011;7439;50.804;4.602;2022-10-03T17:29:01;12.60;;;4.60;;
14698;SDS011;7439;50.804;4.602;2022-10-03T17:31:37;6.57;;;4.53;;
14698;SDS011;7439;50.804;4.602;2022-10-03T17:34:10;6.83;;;4.73;;
14698;SDS011;7439;50.804;4.602;2022-10-03T17:39:56;8.60;;;5.00;;
14698;SDS011;7439;50.804;4.602;2022-10-03T17:42:36;11.83;;;4.97;;
14698;SDS011;7439;50.804;4.602;2022-10-03T17:45:16;12.43;;;5.70;;
14698;SDS011;7439;50.804;4.602;2022-10-03T17:47:57;6.67;;;5.77;;
14698;SDS011;7439;50.804;4.602;2022-10-03T17:50:34;8.00;;;5.90;;
14698;SDS011;7439;50.804;4.602;2022-10-03T17:53:04;6.17;;;5.27;;
14698;SDS011;7439;50.804;4.602;2022-10-03T17:55:39;11.87;;;5.80;;
14698;SDS011;7439;50.804;4.602;2022-10-03T17:58:11;7.73;;;5.57;;
14698;SDS011;7439;50.804;4.602;2022-10-03T18:00:53;9.33;;;5.40;;
14698;SDS011;7439;50.804;4.602;2022-10-03T18:03:26;7.33;;;5.90;;
14698;SDS011;7439;50.804;4.602;2022-10-03T18:05:59;8.17;;;4.97;;
14698;SDS011;7439;50.804;4.602;2022-10-03T18:08:48;10.53;;;7.83;;
14698;SDS011;7439;50.804;4.602;2022-10-03T18:11:19;8.47;;;7.60;;
14698;SDS011;7439;50.804;4.602;2022-10-03T18:13:49;13.30;;;7.87;;
14698;SDS011;7439;50.804;4.602;2022-10-03T18:16:21;8.33;;;5.77;;
14698;SDS011;7439;50.804;4.602;2022-10-03T18:19:03;10.70;;;8.70;;
14698;SDS011;7439;50.804;4.602;2022-10-03T18:21:55;12.00;;;7.10;;
14698;SDS011;7439;50.804;4.602;2022-10-03T18:24:39;6.17;;;5.50;;
14698;SDS011;7439;50.804;4.602;2022-10-03T18:27:58;9.60;;;7.80;;
14698;SDS011;7439;50.804;4.602;2022-10-03T18:30:39;11.00;;;6.33;;
14698;SDS011;7439;50.804;4.602;2022-10-03T18:33:12;9.17;;;7.70;;
14698;SDS011;7439;50.804;4.602;2022-10-03T18:35:43;9.73;;;5.80;;
14698;SDS011;7439;50.804;4.602;2022-10-03T18:38:14;11.70;;;6.80;;
14698;SDS011;7439;50.804;4.602;2022-10-03T18:40:47;12.03;;;6.80;;
14698;SDS011;7439;50.804;4.602;2022-10-03T18:43:28;12.30;;;9.07;;
14698;SDS011;7439;50.804;4.602;2022-10-03T18:46:04;9.50;;;6.63;;
14698;SDS011;7439;50.804;4.602;2022-10-03T18:48:43;14.43;;;9.07;;
14698;SDS011;7439;50.804;4.602;2022-10-03T18:51:22;12.83;;;11.23;;
14698;SDS011;7439;50.804;4.602;2022-10-03T18:53:57;12.93;;;10.33;;
14698;SDS011;7439;50.804;4.602;2022-10-03T18:56:28;10.63;;;7.37;;
14698;SDS011;7439;50.804;4.602;2022-10-03T18:59:09;12.57;;;8.40;;
14698;SDS011;7439;50.804;4.602;2022-10-03T19:01:49;17.70;;;7.93;;
14698;SDS011;7439;50.804;4.602;2022-10-03T19:04:21;10.43;;;9.27;;
14698;SDS011;7439;50.804;4.602;2022-10-03T19:06:59;19.47;;;15.83;;
14698;SDS011;7439;50.804;4.602;2022-10-03T19:09:31;16.90;;;15.00;;
14698;SDS011;7439;50.804;4.602;2022-10-03T19:12:04;14.93;;;13.60;;
14698;SDS011;7439;50.804;4.602;2022-10-03T19:14:39;13.90;;;8.60;;
14698;SDS011;7439;50.804;4.602;2022-10-03T19:17:20;14.80;;;10.00;;
14698;SDS011;7439;50.804;4.602;2022-10-03T19:19:51;17.23;;;10.30;;
14698;SDS011;7439;50.804;4.602;2022-10-03T19:22:22;13.60;;;10.43;;
14698;SDS011;7439;50.804;4.602;2022-10-03T19:24:53;18.90;;;9.10;;
14698;SDS011;7439;50.804;4.602;2022-10-03T19:27:23;10.90;;;8.93;;
14698;SDS011;7439;50.804;4.602;2022-10-03T19:30:06;8.97;;;8.07;;
14698;SDS011;7439;50.804;4.602;2022-10-03T19:32:43;13.17;;;8.50;;
14698;SDS011;7439;50.804;4.602;2022-10-03T19:35:15;9.63;;;8.60;;
14698;SDS011;7439;50.804;4.602;2022-10-03T19:37:46;12.10;;;8.57;;
14698;SDS011;7439;50.804;4.602;2022-10-03T19:40:21;14.00;;;8.70;;
14698;SDS011;7439;50.804;4.602;2022-10-03T19:42:58;12.73;;;11.53;;
14698;SDS011;7439;50.804;4.602;2022-10-03T19:45:46;13.77;;;10.03;;
14698;SDS011;7439;50.804;4.602;2022-10-03T19:48:15;16.07;;;11.00;;
14698;SDS011;7439;50.804;4.602;2022-10-03T19:50:43;30.23;;;13.27;;